createdAt,value
2018-05-13T00:00:35.326Z,18.20
2018-05-13T00:03:04.148Z,18.20
2018-05-13T00:05:33.365Z,18.10
2018-05-13T00:08:01.511Z,18.10
2018-05-13T00:10:29.578Z,18.10
2018-05-13T00:12:57.704Z,18.00
2018-05-13T00:15:25.778Z,18.00
2018-05-13T00:17:53.854Z,18.00
2018-05-13T00:20:22.590Z,18.00
2018-05-13T00:22:51.840Z,18.00
2018-05-13T00:25:19.889Z,17.90
2018-05-13T00:27:47.981Z,18.00
2018-05-13T00:30:16.031Z,17.90
2018-05-13T00:32:44.131Z,17.90
2018-05-13T00:35:13.413Z,17.90
2018-05-13T00:37:41.511Z,17.90
2018-05-13T00:42:38.922Z,17.80
2018-05-13T00:45:07.398Z,17.80
2018-05-13T00:47:35.433Z,17.80
2018-05-13T00:50:03.580Z,17.70
2018-05-13T00:52:33.373Z,17.70
2018-05-13T00:55:01.467Z,17.70
2018-05-13T00:57:29.543Z,17.70
2018-05-13T00:59:58.521Z,17.60
2018-05-13T01:02:26.630Z,17.60
2018-05-13T01:04:55.474Z,17.60
2018-05-13T01:07:23.998Z,17.60
2018-05-13T01:09:55.055Z,17.50
2018-05-13T01:12:23.109Z,17.50
2018-05-13T01:14:51.951Z,17.50
2018-05-13T01:17:20.038Z,17.50
2018-05-13T01:19:48.094Z,17.50
2018-05-13T01:22:16.159Z,17.40
2018-05-13T01:24:44.233Z,17.40
2018-05-13T01:27:12.324Z,17.40
2018-05-13T01:29:44.832Z,17.40
2018-05-13T01:32:15.386Z,17.40
2018-05-13T01:34:43.486Z,17.40
2018-05-13T01:37:11.571Z,17.30
2018-05-13T01:39:39.650Z,17.30
2018-05-13T01:42:08.487Z,17.20
2018-05-13T01:44:37.369Z,17.20
2018-05-13T01:47:06.216Z,17.20
2018-05-13T01:49:34.313Z,17.20
2018-05-13T01:52:02.374Z,17.10
2018-05-13T01:54:30.454Z,17.10
2018-05-13T01:56:58.522Z,17.10
2018-05-13T01:59:26.661Z,17.10
2018-05-13T02:01:54.670Z,17.00
2018-05-13T02:04:22.762Z,17.00
2018-05-13T02:06:51.598Z,17.00
2018-05-13T02:09:19.692Z,17.00
2018-05-13T02:11:47.749Z,17.00
2018-05-13T02:14:15.838Z,17.00
2018-05-13T02:16:43.928Z,16.90
2018-05-13T02:21:42.097Z,16.90
2018-05-13T02:24:10.185Z,16.80
2018-05-13T02:26:38.937Z,16.80
2018-05-13T02:29:07.040Z,16.80
2018-05-13T02:31:35.139Z,16.70
2018-05-13T02:34:03.991Z,16.70
2018-05-13T02:36:32.051Z,16.70
2018-05-13T02:39:00.139Z,16.60
2018-05-13T02:41:28.186Z,16.60
2018-05-13T02:43:56.263Z,16.60
2018-05-13T02:46:24.353Z,16.50
2018-05-13T02:48:52.414Z,16.50
2018-05-13T02:51:20.462Z,16.50
2018-05-13T02:53:48.558Z,16.40
2018-05-13T02:56:21.049Z,16.40
2018-05-13T02:58:50.653Z,16.40
2018-05-13T03:01:19.133Z,16.30
2018-05-13T03:03:47.197Z,16.30
2018-05-13T03:06:15.277Z,16.30
2018-05-13T03:08:43.390Z,16.30
2018-05-13T03:11:11.459Z,16.30
2018-05-13T03:13:39.512Z,16.20
2018-05-13T03:16:08.351Z,16.20
2018-05-13T03:18:37.420Z,16.20
2018-05-13T03:21:05.476Z,16.20
2018-05-13T03:23:34.246Z,16.20
2018-05-13T03:26:03.097Z,16.20
2018-05-13T03:28:32.027Z,16.20
2018-05-13T03:31:00.114Z,16.10
2018-05-13T03:33:28.992Z,16.20
2018-05-13T03:35:57.066Z,16.20
2018-05-13T03:38:25.542Z,16.10
2018-05-13T03:40:54.374Z,16.10
2018-05-13T03:43:22.461Z,16.10
2018-05-13T03:45:50.525Z,16.10
2018-05-13T03:48:18.639Z,16.10
2018-05-13T03:50:46.673Z,16.10
2018-05-13T03:53:14.758Z,16.10
2018-05-13T03:55:42.821Z,16.10
2018-05-13T03:58:10.924Z,16.10
2018-05-13T04:00:39.014Z,16.10
2018-05-13T04:03:07.850Z,16.20
2018-05-13T04:05:35.958Z,16.20
2018-05-13T04:11:31.229Z,16.20
2018-05-13T04:14:11.200Z,16.20
2018-05-13T04:16:39.267Z,16.30
2018-05-13T04:19:07.333Z,16.20
2018-05-13T04:21:35.394Z,16.20
2018-05-13T04:24:03.465Z,16.20
2018-05-13T04:26:31.529Z,16.20
2018-05-13T04:28:59.609Z,16.30
2018-05-13T04:31:28.065Z,16.40
2018-05-13T04:33:56.105Z,16.40
2018-05-13T04:36:24.197Z,16.50
2018-05-13T04:38:52.261Z,16.60
2018-05-13T04:41:20.310Z,16.60
2018-05-13T04:43:48.402Z,16.70
2018-05-13T04:46:16.451Z,16.80
2018-05-13T04:48:44.538Z,16.90
2018-05-13T04:51:13.364Z,16.90
2018-05-13T04:53:41.438Z,17.00
2018-05-13T04:56:09.507Z,17.00
2018-05-13T04:58:37.585Z,17.10
2018-05-13T05:01:06.534Z,17.10
2018-05-13T05:03:34.639Z,17.10
2018-05-13T05:06:03.477Z,17.20
2018-05-13T05:08:31.566Z,17.30
2018-05-13T05:10:59.635Z,17.30
2018-05-13T05:13:27.760Z,17.30
2018-05-13T05:15:55.854Z,17.40
2018-05-13T05:18:23.891Z,17.60
2018-05-13T05:20:51.985Z,17.70
2018-05-13T05:23:20.098Z,17.70
2018-05-13T05:25:48.206Z,17.70
2018-05-13T05:28:17.039Z,17.80
2018-05-13T05:30:45.131Z,17.80
2018-05-13T05:33:13.189Z,15.60
2018-05-13T05:35:41.386Z,19.80
2018-05-13T05:38:09.414Z,20.60
2018-05-13T05:40:37.466Z,21.10
2018-05-13T05:43:05.530Z,21.60
2018-05-13T05:45:33.630Z,22.50
2018-05-13T05:48:01.679Z,23.50
2018-05-13T05:50:29.749Z,24.30
2018-05-13T05:52:57.831Z,24.80
2018-05-13T05:55:25.920Z,25.40
2018-05-13T05:57:54.010Z,25.40
2018-05-13T06:00:22.100Z,25.90
2018-05-13T06:02:50.154Z,26.40
2018-05-13T06:05:19.756Z,27.10
2018-05-13T06:07:47.846Z,27.30
2018-05-13T06:10:15.935Z,27.30
2018-05-13T06:12:43.973Z,27.60
2018-05-13T06:15:13.566Z,28.30
2018-05-13T06:17:41.659Z,28.30
2018-05-13T06:20:09.742Z,28.70
2018-05-13T06:22:37.870Z,28.70
2018-05-13T06:25:05.948Z,29.20
2018-05-13T06:27:34.058Z,29.20
2018-05-13T06:30:02.287Z,30.40
2018-05-13T06:32:31.521Z,30.60
2018-05-13T06:34:59.601Z,31.10
2018-05-13T06:37:27.723Z,31.30
2018-05-13T06:39:55.773Z,31.20
2018-05-13T06:42:24.598Z,31.30
2018-05-13T06:44:52.703Z,31.10
2018-05-13T06:47:20.815Z,31.40
2018-05-13T06:49:48.862Z,32.00
2018-05-13T06:52:16.956Z,32.10
2018-05-13T06:54:45.062Z,32.50
2018-05-13T06:57:13.139Z,32.30
2018-05-13T06:59:41.178Z,32.70
2018-05-13T07:02:09.280Z,33.40
2018-05-13T07:04:37.380Z,33.90
2018-05-13T07:07:05.438Z,34.60
2018-05-13T07:09:33.541Z,34.60
2018-05-13T07:12:02.391Z,35.00
2018-05-13T07:14:30.466Z,35.30
2018-05-13T07:16:58.549Z,35.50
2018-05-13T07:19:26.603Z,35.50
2018-05-13T07:21:55.462Z,36.10
2018-05-13T07:24:23.537Z,35.90
2018-05-13T07:26:51.622Z,35.80
2018-05-13T07:29:19.690Z,36.00
2018-05-13T07:31:47.796Z,35.90
2018-05-13T07:34:16.757Z,35.80
2018-05-13T07:36:44.852Z,35.60
2018-05-13T07:39:12.924Z,35.40
2018-05-13T07:41:40.975Z,35.30
2018-05-13T07:44:09.150Z,35.30
2018-05-13T07:46:37.223Z,35.20
2018-05-13T07:49:05.294Z,35.20
2018-05-13T07:51:33.357Z,35.20
2018-05-13T07:54:01.458Z,35.90
2018-05-13T07:56:29.554Z,36.50
2018-05-13T07:58:57.577Z,36.80
2018-05-13T08:01:25.645Z,36.80
2018-05-13T08:03:53.726Z,37.10
2018-05-13T08:06:21.792Z,37.50
2018-05-13T08:08:49.842Z,37.50
2018-05-13T08:11:17.932Z,39.00
2018-05-13T08:13:46.051Z,39.60
2018-05-13T08:16:14.117Z,39.60
2018-05-13T08:18:42.196Z,39.70
2018-05-13T08:21:10.281Z,39.30
2018-05-13T08:23:39.117Z,39.30
2018-05-13T08:26:07.173Z,39.80
2018-05-13T08:28:35.241Z,39.80
2018-05-13T08:31:03.404Z,40.40
2018-05-13T08:33:32.202Z,39.70
2018-05-13T08:36:00.276Z,41.00
2018-05-13T08:38:28.348Z,39.00
2018-05-13T08:40:57.190Z,39.10
2018-05-13T08:43:25.287Z,38.90
2018-05-13T08:45:54.107Z,38.90
2018-05-13T08:48:22.223Z,38.80
2018-05-13T08:50:50.232Z,38.90
2018-05-13T08:53:18.311Z,39.30
2018-05-13T08:55:47.594Z,39.70
2018-05-13T08:58:15.670Z,39.00
2018-05-13T09:00:43.847Z,38.80
2018-05-13T09:03:11.926Z,38.80
2018-05-13T09:05:39.988Z,39.60
2018-05-13T09:08:08.115Z,39.70
2018-05-13T09:10:36.743Z,39.60
2018-05-13T09:13:06.313Z,39.40
2018-05-13T09:15:36.225Z,40.20
2018-05-13T09:18:05.057Z,40.40
2018-05-13T09:20:34.015Z,40.20
2018-05-13T09:23:02.097Z,40.30
2018-05-13T09:25:30.562Z,40.60
2018-05-13T09:27:58.668Z,41.00
2018-05-13T09:30:26.762Z,41.00
2018-05-13T09:32:54.913Z,41.20
2018-05-13T09:35:23.349Z,41.30
2018-05-13T09:37:51.414Z,41.30
2018-05-13T09:40:19.477Z,42.00
2018-05-13T09:42:47.590Z,42.30
2018-05-13T09:45:16.087Z,42.10
2018-05-13T09:47:44.162Z,41.80
2018-05-13T09:50:13.007Z,42.10
2018-05-13T09:52:41.067Z,42.10
2018-05-13T09:55:09.226Z,42.40
2018-05-13T09:57:38.164Z,43.10
2018-05-13T10:00:06.147Z,42.60
2018-05-13T10:02:35.019Z,42.00
2018-05-13T10:05:03.120Z,42.00
2018-05-13T10:07:31.743Z,41.40
2018-05-13T10:09:59.853Z,41.10
2018-05-13T10:12:32.285Z,40.70
2018-05-13T10:15:01.615Z,40.60
2018-05-13T10:17:29.711Z,40.60
2018-05-13T10:19:57.805Z,40.80
2018-05-13T10:22:25.843Z,39.20
2018-05-13T10:24:53.914Z,38.40
2018-05-13T10:27:22.057Z,38.10
2018-05-13T10:29:50.469Z,38.00
2018-05-13T10:32:19.306Z,37.90
2018-05-13T10:34:48.157Z,37.10
2018-05-13T10:37:17.008Z,37.00
2018-05-13T10:39:45.841Z,37.40
2018-05-13T10:42:14.659Z,37.50
2018-05-13T10:44:43.498Z,37.30
2018-05-13T10:47:11.990Z,37.60
2018-05-13T10:49:40.807Z,37.90
2018-05-13T10:52:08.841Z,38.10
2018-05-13T10:54:37.710Z,37.80
2018-05-13T10:57:06.574Z,37.30
2018-05-13T10:59:35.075Z,37.10
2018-05-13T11:02:03.371Z,37.10
2018-05-13T11:04:31.444Z,36.70
2018-05-13T11:07:00.070Z,36.30
2018-05-13T11:09:28.136Z,36.20
2018-05-13T11:11:56.975Z,35.80
2018-05-13T11:14:25.080Z,35.80
2018-05-13T11:16:53.166Z,35.60
2018-05-13T11:19:21.238Z,35.50
2018-05-13T11:21:50.082Z,35.90
2018-05-13T11:24:18.169Z,35.80
2018-05-13T11:26:46.306Z,35.80
2018-05-13T11:29:15.113Z,35.20
2018-05-13T11:31:43.183Z,35.20
2018-05-13T11:34:11.271Z,35.20
2018-05-13T11:36:39.855Z,35.00
2018-05-13T11:39:07.920Z,35.00
2018-05-13T11:41:36.022Z,35.00
2018-05-13T11:44:04.150Z,35.10
2018-05-13T11:46:32.229Z,34.60
2018-05-13T11:49:00.302Z,34.60
2018-05-13T11:51:28.407Z,34.40
2018-05-13T11:53:56.482Z,34.30
2018-05-13T11:56:25.420Z,34.00
2018-05-13T11:58:53.406Z,33.80
2018-05-13T12:01:21.485Z,33.90
2018-05-13T12:03:49.646Z,33.90
2018-05-13T12:06:17.714Z,33.60
2018-05-13T12:08:45.784Z,33.30
2018-05-13T12:11:13.867Z,33.10
2018-05-13T12:13:41.933Z,32.90
2018-05-13T12:16:10.792Z,32.30
2018-05-13T12:18:38.848Z,32.30
2018-05-13T12:21:06.985Z,32.40
2018-05-13T12:23:35.003Z,32.60
2018-05-13T12:26:03.062Z,32.20
2018-05-13T12:28:31.133Z,32.00
2018-05-13T12:30:59.974Z,31.90
2018-05-13T12:33:28.063Z,32.00
2018-05-13T12:35:56.112Z,31.90
2018-05-13T12:38:24.188Z,32.20
2018-05-13T12:40:52.225Z,32.30
2018-05-13T12:43:20.283Z,32.30
2018-05-13T12:45:48.358Z,32.00
2018-05-13T12:48:16.451Z,31.60
2018-05-13T12:50:45.273Z,31.30
2018-05-13T12:53:13.354Z,31.00
2018-05-13T12:55:41.400Z,32.40
2018-05-13T12:58:09.508Z,30.80
2018-05-13T13:00:37.560Z,30.70
2018-05-13T13:03:05.605Z,30.70
2018-05-13T13:05:33.697Z,30.70
2018-05-13T13:08:01.724Z,30.50
2018-05-13T13:10:29.797Z,30.40
2018-05-13T13:12:58.647Z,30.50
2018-05-13T13:15:26.709Z,30.50
2018-05-13T13:17:54.778Z,30.40
2018-05-13T13:20:22.847Z,30.30
2018-05-13T13:22:50.922Z,30.40
2018-05-13T13:25:18.997Z,30.50
2018-05-13T13:27:47.069Z,30.60
2018-05-13T13:30:16.054Z,30.60
2018-05-13T13:32:44.851Z,30.50
2018-05-13T13:35:13.317Z,30.40
2018-05-13T13:37:41.391Z,30.20
2018-05-13T13:40:09.557Z,30.20
2018-05-13T13:42:38.201Z,30.10
2018-05-13T13:45:08.079Z,29.90
2018-05-13T13:47:36.118Z,29.70
2018-05-13T13:50:06.630Z,29.50
2018-05-13T13:52:34.695Z,29.50
2018-05-13T13:55:02.771Z,29.10
2018-05-13T13:57:30.823Z,29.20
2018-05-13T13:59:59.669Z,29.30
2018-05-13T14:02:27.744Z,29.40
2018-05-13T14:04:55.827Z,29.40
2018-05-13T14:07:23.855Z,29.40
2018-05-13T14:09:51.938Z,29.40
2018-05-13T14:12:20.004Z,29.30
2018-05-13T14:14:48.091Z,29.20
2018-05-13T14:17:16.149Z,29.30
2018-05-13T14:19:44.211Z,29.40
2018-05-13T14:22:12.280Z,29.50
2018-05-13T14:24:40.350Z,30.80
2018-05-13T14:27:08.423Z,29.40
2018-05-13T14:29:36.517Z,29.20
2018-05-13T14:32:04.596Z,29.20
2018-05-13T14:34:32.650Z,29.10
2018-05-13T14:37:01.255Z,29.10
2018-05-13T14:39:30.130Z,29.20
2018-05-13T14:41:58.173Z,29.20
2018-05-13T14:44:26.270Z,29.30
2018-05-13T14:46:54.398Z,29.20
2018-05-13T14:49:23.235Z,29.20
2018-05-13T14:51:51.317Z,29.20
2018-05-13T14:54:19.402Z,29.10
2018-05-13T14:56:47.467Z,29.00
2018-05-13T14:59:15.920Z,28.90
2018-05-13T15:01:44.007Z,28.80
2018-05-13T15:04:13.586Z,28.80
2018-05-13T15:06:41.643Z,28.90
2018-05-13T15:09:09.714Z,28.90
2018-05-13T15:11:37.788Z,28.90
2018-05-13T15:14:05.808Z,28.90
2018-05-13T15:16:34.680Z,29.00
2018-05-13T15:19:02.719Z,28.90
2018-05-13T15:21:30.741Z,28.90
2018-05-13T15:23:58.794Z,28.80
2018-05-13T15:26:26.882Z,28.80
2018-05-13T15:28:54.943Z,28.70
2018-05-13T15:31:23.074Z,28.70
2018-05-13T15:33:51.070Z,28.50
2018-05-13T15:36:19.135Z,28.40
2018-05-13T15:38:47.191Z,28.10
2018-05-13T15:41:15.246Z,28.10
2018-05-13T15:43:44.075Z,28.10
2018-05-13T15:46:12.125Z,28.30
2018-05-13T15:48:40.199Z,28.20
2018-05-13T15:51:08.276Z,28.30
2018-05-13T15:53:36.449Z,28.30
2018-05-13T15:56:04.486Z,28.20
2018-05-13T15:58:33.312Z,28.20
2018-05-13T16:01:01.387Z,28.20
2018-05-13T16:03:29.430Z,28.10
2018-05-13T16:05:58.257Z,28.00
2018-05-13T16:08:27.266Z,28.00
2018-05-13T16:10:55.309Z,28.00
2018-05-13T16:13:23.385Z,28.00
2018-05-13T16:15:51.423Z,27.90
2018-05-13T16:18:20.268Z,28.00
2018-05-13T16:20:48.731Z,28.00
2018-05-13T16:23:16.785Z,28.00
2018-05-13T16:25:45.521Z,27.90
2018-05-13T16:28:13.558Z,28.00
2018-05-13T16:30:41.635Z,27.90
2018-05-13T16:33:09.709Z,28.00
2018-05-13T16:35:37.745Z,28.10
2018-05-13T16:38:05.815Z,28.20
2018-05-13T16:40:34.611Z,28.30
2018-05-13T16:43:02.672Z,28.40
2018-05-13T16:45:31.498Z,28.40
2018-05-13T16:48:00.470Z,28.30
2018-05-13T16:50:28.520Z,28.20
2018-05-13T16:52:57.339Z,28.10
2018-05-13T16:55:25.381Z,28.00
2018-05-13T16:57:54.213Z,27.90
2018-05-13T17:00:22.264Z,27.90
2018-05-13T17:02:50.351Z,27.70
2018-05-13T17:05:18.398Z,27.60
2018-05-13T17:07:46.467Z,27.50
2018-05-13T17:10:14.502Z,27.50
2018-05-13T17:12:42.564Z,27.40
2018-05-13T17:15:10.628Z,27.40
2018-05-13T17:17:38.682Z,27.20
2018-05-13T17:20:06.730Z,27.20
2018-05-13T17:22:34.774Z,27.00
2018-05-13T17:25:03.633Z,26.90
2018-05-13T17:27:31.705Z,26.90
2018-05-13T17:29:59.792Z,26.90
2018-05-13T17:32:27.840Z,26.90
2018-05-13T17:34:55.957Z,26.80
2018-05-13T17:37:24.815Z,26.70
2018-05-13T17:39:52.833Z,26.70
2018-05-13T17:42:20.890Z,26.60
2018-05-13T17:44:49.754Z,26.50
2018-05-13T17:47:17.806Z,26.50
2018-05-13T17:49:45.928Z,26.50
2018-05-13T17:52:13.918Z,26.40
2018-05-13T17:54:41.965Z,26.40
2018-05-13T17:57:10.903Z,26.30
2018-05-13T17:59:38.890Z,26.30
2018-05-13T18:02:06.965Z,26.30
2018-05-13T18:04:35.031Z,26.20
2018-05-13T18:07:03.099Z,26.20
2018-05-13T18:09:31.153Z,26.10
2018-05-13T18:11:59.206Z,26.10
2018-05-13T18:14:27.271Z,26.00
2018-05-13T18:16:55.338Z,25.90
2018-05-13T18:19:23.394Z,25.90
2018-05-13T18:21:51.459Z,25.80
2018-05-13T18:24:20.371Z,25.70
2018-05-13T18:26:48.426Z,25.70
2018-05-13T18:29:17.413Z,25.70
2018-05-13T18:31:46.305Z,25.70
2018-05-13T18:34:14.374Z,25.70
2018-05-13T18:36:42.438Z,25.70
2018-05-13T18:39:10.551Z,25.70
2018-05-13T18:41:39.536Z,25.70
2018-05-13T18:44:07.591Z,25.60
2018-05-13T18:46:36.417Z,25.70
2018-05-13T18:49:04.477Z,25.70
2018-05-13T18:51:32.622Z,25.70
2018-05-13T18:54:00.631Z,25.70
2018-05-13T18:56:28.734Z,25.70
2018-05-13T18:58:56.974Z,25.70
2018-05-13T19:01:25.771Z,25.50
2018-05-13T19:03:53.820Z,25.50
2018-05-13T19:06:22.720Z,25.00
2018-05-13T19:08:50.837Z,25.00
2018-05-13T19:11:18.906Z,24.70
2018-05-13T19:13:46.987Z,24.50
2018-05-13T19:16:15.069Z,24.40
2018-05-13T19:18:43.958Z,24.10
2018-05-13T19:21:12.034Z,24.10
2018-05-13T19:23:40.135Z,24.00
2018-05-13T19:26:08.937Z,23.80
2018-05-13T19:28:37.013Z,25.90
2018-05-13T19:31:05.095Z,23.70
2018-05-13T19:33:33.159Z,23.60
2018-05-13T19:36:01.247Z,23.50
2018-05-13T19:38:29.310Z,23.50
2018-05-13T19:40:57.457Z,23.40
2018-05-13T19:43:26.365Z,23.30
2018-05-13T19:45:54.455Z,23.20
2018-05-13T19:48:23.833Z,23.10
2018-05-13T19:50:51.954Z,23.00
2018-05-13T19:53:20.019Z,22.80
2018-05-13T19:55:48.135Z,18.60
2018-05-13T19:58:16.984Z,22.70
2018-05-13T20:00:45.086Z,22.60
2018-05-13T20:03:14.098Z,22.50
2018-05-13T20:05:42.866Z,22.50
2018-05-13T20:08:11.300Z,22.40
2018-05-13T20:10:40.094Z,22.40
2018-05-13T20:13:08.149Z,22.30
2018-05-13T20:15:36.372Z,22.30
2018-05-13T20:18:04.363Z,22.30
2018-05-13T20:20:32.461Z,22.20
2018-05-13T20:23:12.421Z,22.10
2018-05-13T20:25:40.501Z,22.10
2018-05-13T20:28:08.563Z,21.90
2018-05-13T20:30:36.616Z,21.80
2018-05-13T20:33:04.693Z,21.80
2018-05-13T20:35:32.755Z,21.70
2018-05-13T20:38:02.862Z,21.60
2018-05-13T20:40:30.907Z,21.60
2018-05-13T20:42:59.735Z,21.50
2018-05-13T20:45:27.793Z,21.50
2018-05-13T20:47:55.898Z,21.50
2018-05-13T20:50:23.951Z,21.50
2018-05-13T20:52:52.013Z,21.40
2018-05-13T20:55:20.074Z,21.40
2018-05-13T20:57:48.947Z,21.30
2018-05-13T21:00:17.018Z,21.30
2018-05-13T21:02:45.834Z,21.20
2018-05-13T21:05:13.910Z,21.20
2018-05-13T21:07:41.976Z,21.20
2018-05-13T21:10:10.035Z,21.10
2018-05-13T21:12:38.862Z,20.00
2018-05-13T21:15:06.912Z,21.00
2018-05-13T21:17:34.987Z,21.00
2018-05-13T21:20:03.147Z,20.90
2018-05-13T21:22:31.218Z,20.80
2018-05-13T21:25:00.805Z,20.70
2018-05-13T21:27:29.659Z,20.70
2018-05-13T21:29:57.730Z,20.60
2018-05-13T21:32:25.779Z,20.60
2018-05-13T21:34:53.909Z,20.60
2018-05-13T21:37:21.971Z,20.50
2018-05-13T21:39:50.031Z,20.50
2018-05-13T21:42:18.106Z,20.40
2018-05-13T21:44:46.212Z,20.40
2018-05-13T21:47:15.046Z,20.30
2018-05-13T21:49:43.098Z,20.30
2018-05-13T21:52:11.246Z,20.30
2018-05-13T21:54:40.096Z,20.20
2018-05-13T21:57:08.095Z,20.20
2018-05-13T21:59:36.958Z,20.00
2018-05-13T22:02:05.001Z,20.00
2018-05-13T22:04:33.101Z,20.00
2018-05-13T22:07:01.199Z,20.00
2018-05-13T22:09:30.038Z,19.90
2018-05-13T22:11:58.129Z,19.80
2018-05-13T22:14:26.225Z,19.80
2018-05-13T22:16:55.030Z,19.80
2018-05-13T22:19:24.554Z,19.70
2018-05-13T22:21:52.691Z,19.70
2018-05-13T22:24:20.761Z,19.70
2018-05-13T22:26:48.839Z,19.60
2018-05-13T22:29:17.681Z,19.50
2018-05-13T22:31:46.598Z,19.50
2018-05-13T22:34:14.714Z,19.40
2018-05-13T22:36:43.523Z,19.40
2018-05-13T22:39:12.465Z,19.30
2018-05-13T22:41:40.550Z,19.30
2018-05-13T22:44:09.397Z,19.30
2018-05-13T22:46:38.298Z,19.30
2018-05-13T22:49:06.388Z,19.30
2018-05-13T22:51:36.005Z,19.20
2018-05-13T22:54:05.682Z,19.10
2018-05-13T22:56:36.365Z,19.10
2018-05-13T22:59:10.350Z,19.10
2018-05-13T23:01:39.160Z,19.10
2018-05-13T23:04:07.968Z,19.00
2018-05-13T23:06:36.034Z,19.00
2018-05-13T23:09:04.125Z,19.10
2018-05-13T23:11:32.281Z,19.00
2018-05-13T23:14:00.325Z,18.90
2018-05-13T23:16:29.142Z,18.80
2018-05-13T23:18:57.320Z,18.80
2018-05-13T23:21:25.423Z,18.80
2018-05-13T23:23:53.462Z,15.70
2018-05-13T23:26:21.531Z,18.70
2018-05-13T23:28:49.673Z,18.70
2018-05-13T23:31:18.482Z,18.70
2018-05-13T23:33:46.566Z,18.70
2018-05-13T23:36:14.623Z,18.60
2018-05-13T23:38:43.476Z,18.50
2018-05-13T23:41:11.562Z,18.50
2018-05-13T23:43:39.638Z,18.40
2018-05-13T23:46:07.695Z,18.40
2018-05-13T23:48:35.802Z,18.40
2018-05-13T23:51:03.880Z,18.30
2018-05-13T23:53:31.938Z,18.20
2018-05-13T23:56:00.782Z,18.20
2018-05-13T23:58:28.850Z,18.20
